Aviation Digital Data Service (ADDS)

Output produced by TAFs form (1934 UTC 25 March 2017)
found at http://www.aviationweather.gov/adds/tafs/
 
KBOS 251839Z 2519/2624 04010KT 4SM -RASN OVC015 
     FM252300 05004KT P6SM BKN025 
     FM260200 04004KT P6SM SCT250 
     FM260800 03006KT P6SM SCT030 
     FM261900 10007KT P6SM OVC050 
     FM262300 11006KT P6SM VCSH OVC050
       
KLGA 251746Z 2518/2618 06008KT P6SM -RA SCT045 BKN120 
     FM252000 06009KT P6SM VCSH OVC035 
     FM252200 06009KT P6SM OVC025 
     FM260100 06009KT P6SM OVC015 
     FM260700 06011KT P6SM OVC025 
     FM260800 06010KT P6SM SCT025 OVC035 
     FM261300 06013KT 4SM -RA BR OVC025
       
KEWR 251746Z 2518/2624 VRB04KT P6SM -RA SCT050 BKN120 
     FM252000 04008KT P6SM VCSH OVC035 
     FM252200 05008KT P6SM OVC025 
     FM260100 05010KT P6SM OVC015 
     FM260700 05011KT P6SM OVC025 
     FM261000 05011KT P6SM SCT025 OVC035 
     FM261300 06012KT 5SM -RA BR OVC025 
     FM262000 07010KT 5SM -RA BR OVC015
       
KJFK 251746Z 2518/2624 VRB04KT P6SM VCSH BKN120 
     FM252000 07009KT P6SM VCSH BKN035 
     FM260100 07009KT P6SM OVC020 
     TEMPO 2601/2605 OVC015 
     FM260700 06011KT P6SM OVC025 
     FM261100 07010KT P6SM OVC035 
     FM261300 08013KT 4SM -RA BR OVC025 
     FM262000 09012KT 5SM -RA BR OVC015
       
KPHL 251742Z 2518/2624 25009KT P6SM SCT060 BKN120 
     FM252100 34008KT P6SM BKN050 
     FM260000 05008KT P6SM BKN035 
     FM260300 06010KT P6SM OVC025 
     FM260600 06012KT 6SM BR OVC015 
     FM261200 07012KT 5SM -DZ BR OVC012 
     FM261800 08010KT 4SM -RA BR OVC008
       
KIAD 251735Z 2518/2624 14004KT P6SM FEW130 BKN220 
     FM260000 15004KT P6SM OVC050 
     FM260400 12005KT 3SM BR OVC025 
     FM260500 11006KT 2SM BR BKN015 
     FM261000 11006KT 2SM BR OVC003 
     FM261600 13008KT 3SM BR BKN008 
     FM262100 13008KT 3SM BR OVC015
       
KBWI 251735Z 2518/2624 VRB04KT P6SM OVC250 
     FM252300 14004KT P6SM OVC050 
     FM260200 10005KT 4SM BR OVC025 
     FM260300 10006KT 3SM BR OVC015 
     FM260400 10007KT 3SM BR OVC008 
     FM261500 10009KT 3SM BR OVC003 
     FM261800 11009KT 4SM BR BKN015
       
KDCA 251735Z 2518/2618 17009KT P6SM OVC220 
     FM260100 15005KT P6SM BKN045 
     FM260400 12007KT 4SM BR OVC025 
     FM260700 11008KT 3SM BR OVC015 
     FM260800 10008KT 3SM BR OVC008
       
KCLT 251734Z 2518/2618 20008KT P6SM SCT035 BKN250 
     FM260000 15004KT P6SM BKN045 
     FM261000 16005KT P6SM BKN020 
     PROB30 2612/2614 2SM -SHRA OVC007 
     FM261600 17009KT P6SM VCSH BKN020
       
KATL 251830Z 2519/2624 15010G20KT P6SM SCT045 BKN250 
     FM252300 15009KT P6SM BKN050 
     FM260200 17006KT P6SM VCSH OVC040 
     FM260400 15008KT 6SM SHRA OVC035 
     PROB30 2604/2610 4SM TSRA BKN025CB 
     FM261000 16008KT 6SM -SHRA SCT012 BKN025 
     FM261500 17012KT P6SM VCSH BKN035
       
KMCO 251732Z 2518/2618 11010KT P6SM FEW040 SCT050 BKN250 
     FM260000 09006KT P6SM SCT040 BKN250 
     FM260900 11003KT 5SM BR SCT050 
     FM261500 11009KT P6SM SCT060
       
KTPA 251733Z 2518/2618 12007KT P6SM SCT040 SCT250 
     FM252100 VRB05KT P6SM SCT050 SCT250 
     FM260200 11004KT P6SM FEW040 BKN250 
     FM261400 14007KT P6SM SCT045 SCT150
       
KFLL 251726Z 2518/2618 08017G26KT P6SM FEW035 SCT050 BKN150 
     FM260300 08008KT P6SM SCT050 SCT200 
     FM261400 10012KT P6SM SCT050 SCT200
       
KMIA 251726Z 2518/2618 08016G26KT P6SM SCT040 BKN050 BKN150 
     FM260300 08007KT P6SM SCT050 SCT200 
     FM261400 10011KT P6SM SCT050 SCT250
       
KDTW 251728Z 2518/2624 06011KT 4SM -SHRA BR BKN009 OVC030 
     FM252100 08010KT 6SM BR SCT012 BKN060 
     TEMPO 2521/2523 BKN012 
     FM260300 08007KT 4SM BR OVC008 
     FM260800 09007KT 2SM BR OVC006 
     FM261500 11008KT 5SM BR BKN010 
     FM261700 13010KT 5SM -SHRA SCT012 OVC022
       
KMSP 251736Z 2518/2624 07012G18KT P6SM OVC018 
     FM260000 06010KT P6SM OVC020 
     FM260500 04007KT 6SM -RA BR OVC012 
     FM260800 03007KT 4SM -DZ BR SCT005 OVC007 
     FM261500 03006KT P6SM OVC015
       
KORD 251821Z 2518/2624 04013KT 6SM BR VCSH OVC004 
     TEMPO 2519/2522 4SM -SHRA BR 
     FM252200 07011KT 4SM -SHRA BR OVC008 
     FM260300 09009KT 2SM -RADZ BR OVC005 
     FM261500 16009KT 3SM -RADZ BR OVC008 
     FM261800 19011KT 5SM BR VCSH OVC015
       
KMDW 251728Z 2518/2618 04013KT 6SM BR VCSH OVC005 
     TEMPO 2518/2522 4SM -SHRA BR 
     FM252200 07011KT 4SM -SHRA BR OVC007 
     FM260300 09009KT 2SM -RADZ BR OVC004 
     FM261500 16009KT 3SM -RADZ BR OVC008
       
KMEM 251721Z 2518/2618 18015G24KT P6SM VCSH BKN035 BKN100 BKN250 
     TEMPO 2518/2521 5SM SHRA BKN030 
     FM252100 21010G15KT P6SM VCSH SCT040 BKN090 
     FM260000 23006KT P6SM SCT040 BKN120 
     FM261600 20009KT P6SM SCT120 BKN250
       
KDFW 251728Z 2518/2624 29011KT P6SM SCT030 
     FM260200 VRB04KT P6SM FEW250 
     FM260700 15006KT P6SM FEW250 
     FM261600 17014G24KT P6SM SCT035 SCT250
       
KIAH 251737Z 2518/2624 31008KT P6SM FEW045 
     FM260000 VRB02KT P6SM SKC 
     FM260900 13003KT 5SM BR SCT010 
     FM261400 15008KT P6SM SCT025 
     FM261600 17009KT P6SM BKN022 
     FM262000 16010KT P6SM SCT030
       
KDEN 251730Z 2518/2624 16010KT P6SM FEW180 SCT220 
     FM251900 14013KT P6SM FEW150 BKN220 
     FM260200 17011KT P6SM SCT100 BKN150 
     FM260700 19008KT P6SM SCT060 OVC100 
     FM261000 25007KT P6SM VCSH SCT050 OVC070 
     FM261400 35011KT P6SM VCSH BKN035 OVC050 
     TEMPO 2614/2618 -SHRA BKN020 OVC030 
     FM261800 01014G26KT P6SM BKN020 OVC050 
     FM262200 03009KT P6SM SCT040 BKN060
       
KSLC 251749Z 2518/2624 33011KT 6SM -RA SCT006 BKN020 OVC035 
     TEMPO 2518/2519 4SM RA BR BKN006 OVC014 
     FM252100 33009KT P6SM VCSH BKN025 BKN060 
     FM260100 31005KT P6SM BKN060 
     FM260500 34005KT P6SM BKN080 
     FM260900 15006KT P6SM SKC
       
KSEA 251725Z 2518/2624 20010KT P6SM VCSH SCT015 BKN050 
     TEMPO 2518/2520 BKN015 
     FM252100 22008KT P6SM SCT035 BKN050 
     FM260300 VRB03KT P6SM SCT050 
     FM261200 12006KT P6SM SCT080 OVC120 
     FM261800 13008KT P6SM -RA BKN045 OVC070
       
KSFO 251858Z 2519/2624 29011KT P6SM FEW012 SCT030 BKN200 
     TEMPO 2519/2520 BKN025 
     FM252200 29011KT P6SM FEW015 SCT030 SCT050 
     FM260000 28017KT P6SM FEW015 FEW030 SCT050 
     FM260600 27009KT P6SM FEW015 FEW030 BKN100 
     FM261400 VRB04KT P6SM BKN050
       
KLAX 251724Z 2518/2624 24008KT P6SM FEW015 BKN070 
     FM252000 27015G22KT P6SM BKN050 
     FM260200 26012KT P6SM SCT150 
     FM260600 VRB03KT P6SM SCT150 
     FM261100 VRB03KT 4SM BR SCT150 
     FM261700 VRB03KT P6SM BKN150 
     FM261900 26012KT P6SM BKN150
       
KSAN 251721Z 2518/2624 VRB06KT P6SM BKN018 
     FM251900 29011KT P6SM SCT015 BKN025 
     FM260300 30006KT P6SM VCSH BKN015 
     FM261600 VRB06KT P6SM SCT020 
     FM262000 29009KT P6SM SKC
       
KLAS 251728Z 2518/2618 33012G20KT P6SM SCT070 BKN100 
     FM260200 25009KT P6SM FEW100 
     FM260600 21006KT P6SM FEW100 FEW250 
     FM261700 07006KT P6SM FEW100 BKN250
       
KPHX 251720Z 2518/2618 11006KT P6SM SCT200 
     FM252000 26008KT P6SM SCT180 
     FM252300 27015G25KT P6SM SCT090 SCT140 
     FM260200 28010KT P6SM FEW140 
     FM260800 10006KT P6SM SKC
       
KSDF 251731Z 2518/2624 17017G28KT P6SM SCT060 
     FM252200 17015G23KT P6SM BKN050 
     FM260300 16010KT 5SM -SHRA VCTS BKN040CB 
     FM260800 17007KT 4SM -SHRA BR BKN021 
     FM261300 17009KT P6SM VCSH BKN025
       
KIND 251750Z 2518/2624 18013G23KT P6SM BKN130 
     FM252100 16011KT P6SM -SHRA VCTS BKN070CB 
     FM260300 14008KT 5SM -SHRA BR OVC080 
     FM260800 15010KT 3SM -SHRA BR OVC015 
     FM261400 18009KT P6SM -SHRA OVC040